sensor_id;sensor_type;location;lat;lon;timestamp;pressure;altitude;pressure_sealevel;temperature;humidity
17615;BME280;8926;49.720;6.576;2023-01-28T00:02:02;100613.75;;;4.10;86.73
17615;BME280;8926;49.720;6.576;2023-01-28T00:04:28;100612.03;;;4.11;87.04
17615;BME280;8926;49.720;6.576;2023-01-28T00:06:53;100618.91;;;4.12;87.15
17615;BME280;8926;49.720;6.576;2023-01-28T00:09:18;100616.28;;;4.13;87.32
17615;BME280;8926;49.720;6.576;2023-01-28T00:11:44;100614.56;;;4.14;87.42
17615;BME280;8926;49.720;6.576;2023-01-28T00:14:12;100614.59;;;4.11;86.47
17615;BME280;8926;49.720;6.576;2023-01-28T00:16:38;100615.50;;;4.09;87.26
17615;BME280;8926;49.720;6.576;2023-01-28T00:19:03;100617.25;;;4.07;86.73
17615;BME280;8926;49.720;6.576;2023-01-28T00:21:28;100614.66;;;4.07;86.80
17615;BME280;8926;49.720;6.576;2023-01-28T00:23:55;100617.25;;;4.07;86.45
17615;BME280;8926;49.720;6.576;2023-01-28T00:26:21;100623.28;;;4.08;86.89
17615;BME280;8926;49.720;6.576;2023-01-28T00:28:47;100620.69;;;4.06;86.93
17615;BME280;8926;49.720;6.576;2023-01-28T00:31:25;100616.41;;;4.05;86.68
17615;BME280;8926;49.720;6.576;2023-01-28T00:33:52;100617.28;;;4.04;86.41
17615;BME280;8926;49.720;6.576;2023-01-28T00:36:19;100612.06;;;4.07;86.27
17615;BME280;8926;49.720;6.576;2023-01-28T00:38:50;100614.69;;;4.06;86.54
17615;BME280;8926;49.720;6.576;2023-01-28T00:41:17;100612.06;;;4.07;86.63
17615;BME280;8926;49.720;6.576;2023-01-28T00:43:46;100612.91;;;4.09;85.73
17615;BME280;8926;49.720;6.576;2023-01-28T00:46:11;100622.38;;;4.11;86.46
17615;BME280;8926;49.720;6.576;2023-01-28T00:48:39;100620.66;;;4.09;86.57
17615;BME280;8926;49.720;6.576;2023-01-28T00:51:05;100620.66;;;4.09;86.45
17615;BME280;8926;49.720;6.576;2023-01-28T00:53:32;100622.41;;;4.07;85.86
17615;BME280;8926;49.720;6.576;2023-01-28T00:55:58;100613.81;;;4.05;85.66
17615;BME280;8926;49.720;6.576;2023-01-28T00:58:25;100617.28;;;4.04;85.36
17615;BME280;8926;49.720;6.576;2023-01-28T01:00:50;100625.88;;;4.06;85.56
17615;BME280;8926;49.720;6.576;2023-01-28T01:03:16;100613.81;;;4.05;86.09
17615;BME280;8926;49.720;6.576;2023-01-28T01:05:42;100612.97;;;4.05;85.69
17615;BME280;8926;49.720;6.576;2023-01-28T01:08:07;100616.44;;;4.04;86.23
17615;BME280;8926;49.720;6.576;2023-01-28T01:10:33;100615.53;;;4.06;86.23
17615;BME280;8926;49.720;6.576;2023-01-28T01:12:58;100610.31;;;4.09;85.66
17615;BME280;8926;49.720;6.576;2023-01-28T01:15:24;100615.50;;;4.09;85.62
17615;BME280;8926;49.720;6.576;2023-01-28T01:17:50;100612.84;;;4.13;86.00
17615;BME280;8926;49.720;6.576;2023-01-28T01:20:21;100617.13;;;4.15;86.18
17615;BME280;8926;49.720;6.576;2023-01-28T01:22:47;100627.53;;;4.11;85.46
17615;BME280;8926;49.720;6.576;2023-01-28T01:25:14;100614.59;;;4.11;85.33
17615;BME280;8926;49.720;6.576;2023-01-28T01:27:41;100625.81;;;4.09;85.17
17615;BME280;8926;49.720;6.576;2023-01-28T01:30:07;100618.09;;;4.08;85.59
17615;BME280;8926;49.720;6.576;2023-01-28T01:32:33;100620.72;;;4.05;85.48
17615;BME280;8926;49.720;6.576;2023-01-28T01:35:03;100625.00;;;4.07;85.47
17615;BME280;8926;49.720;6.576;2023-01-28T01:37:30;100630.22;;;4.04;85.51
17615;BME280;8926;49.720;6.576;2023-01-28T01:39:56;100631.94;;;4.04;85.98
17615;BME280;8926;49.720;6.576;2023-01-28T01:42:21;100631.91;;;4.05;85.54
17615;BME280;8926;49.720;6.576;2023-01-28T01:50:06;100627.63;;;4.04;86.10
17615;BME280;8926;49.720;6.576;2023-01-28T01:52:34;100632.78;;;4.04;85.73
17615;BME280;8926;49.720;6.576;2023-01-28T01:55:03;100639.72;;;4.02;86.41
17615;BME280;8926;49.720;6.576;2023-01-28T01:57:33;100638.06;;;3.98;85.35
17615;BME280;8926;49.720;6.576;2023-01-28T02:00:00;100629.50;;;3.95;86.12
17615;BME280;8926;49.720;6.576;2023-01-28T02:02:39;100641.53;;;3.97;86.83
17615;BME280;8926;49.720;6.576;2023-01-28T02:05:07;100634.59;;;3.99;86.65
17615;BME280;8926;49.720;6.576;2023-01-28T02:07:33;100644.09;;;3.99;86.07
17615;BME280;8926;49.720;6.576;2023-01-28T02:09:59;100634.59;;;3.99;86.62
17615;BME280;8926;49.720;6.576;2023-01-28T02:12:36;100641.47;;;4.00;86.01
17615;BME280;8926;49.720;6.576;2023-01-28T02:15:18;100633.72;;;4.00;85.82
17615;BME280;8926;49.720;6.576;2023-01-28T02:17:45;100636.31;;;4.00;86.37
17615;BME280;8926;49.720;6.576;2023-01-28T02:20:13;100629.47;;;3.96;86.15
17615;BME280;8926;49.720;6.576;2023-01-28T02:23:14;100631.25;;;3.91;85.85
17615;BME280;8926;49.720;6.576;2023-01-28T02:26:50;100641.59;;;3.91;85.50
17615;BME280;8926;49.720;6.576;2023-01-28T02:31:49;100641.59;;;3.91;85.99
17615;BME280;8926;49.720;6.576;2023-01-28T02:34:35;100632.06;;;3.95;85.95
17615;BME280;8926;49.720;6.576;2023-01-28T02:37:21;100641.69;;;3.88;85.58
17615;BME280;8926;49.720;6.576;2023-01-28T02:39:57;100631.38;;;3.85;85.48
17615;BME280;8926;49.720;6.576;2023-01-28T02:42:30;100628.78;;;3.87;85.43
17615;BME280;8926;49.720;6.576;2023-01-28T02:44:56;100621.97;;;3.81;86.73
17615;BME280;8926;49.720;6.576;2023-01-28T02:47:22;100624.50;;;3.84;86.18
17615;BME280;8926;49.720;6.576;2023-01-28T02:50:11;100629.63;;;3.87;86.14
17615;BME280;8926;49.720;6.576;2023-01-28T02:52:48;100627.88;;;3.89;85.80
17615;BME280;8926;49.720;6.576;2023-01-28T02:58:24;100629.72;;;3.81;87.09
17615;BME280;8926;49.720;6.576;2023-01-28T03:01:08;100641.72;;;3.85;87.31
17615;BME280;8926;49.720;6.576;2023-01-28T03:06:11;100648.56;;;3.89;86.94
17615;BME280;8926;49.720;6.576;2023-01-28T03:08:50;100645.03;;;3.93;87.06
17615;BME280;8926;49.720;6.576;2023-01-28T03:11:39;100641.59;;;3.91;86.53
17615;BME280;8926;49.720;6.576;2023-01-28T03:14:24;100641.59;;;3.91;86.37
17615;BME280;8926;49.720;6.576;2023-01-28T03:17:16;100648.47;;;3.92;85.65
17615;BME280;8926;49.720;6.576;2023-01-28T03:20:02;100648.47;;;3.92;85.67
17615;BME280;8926;49.720;6.576;2023-01-28T03:22:50;100646.88;;;3.87;85.68
17615;BME280;8926;49.720;6.576;2023-01-28T03:25:38;100653.78;;;3.86;86.21
17615;BME280;8926;49.720;6.576;2023-01-28T03:28:25;100653.72;;;3.89;85.91
17615;BME280;8926;49.720;6.576;2023-01-28T03:31:16;100645.03;;;3.93;85.70
17615;BME280;8926;49.720;6.576;2023-01-28T03:34:03;100656.19;;;3.95;85.52
17615;BME280;8926;49.720;6.576;2023-01-28T03:36:48;100655.28;;;3.99;85.21
17615;BME280;8926;49.720;6.576;2023-01-28T03:39:27;100655.31;;;3.96;85.36
17615;BME280;8926;49.720;6.576;2023-01-28T03:42:02;100662.22;;;3.96;84.51
17615;BME280;8926;49.720;6.576;2023-01-28T03:44:28;100660.44;;;3.99;85.12
17615;BME280;8926;49.720;6.576;2023-01-28T03:47:11;100657.88;;;3.98;84.74
17615;BME280;8926;49.720;6.576;2023-01-28T03:49:48;100668.25;;;3.96;85.73
17615;BME280;8926;49.720;6.576;2023-01-28T03:52:15;100674.28;;;3.95;84.92
17615;BME280;8926;49.720;6.576;2023-01-28T03:54:40;100668.25;;;3.96;84.58
17615;BME280;8926;49.720;6.576;2023-01-28T03:57:06;100672.69;;;3.88;84.47
17615;BME280;8926;49.720;6.576;2023-01-28T03:59:32;100670.09;;;3.88;84.73
17615;BME280;8926;49.720;6.576;2023-01-28T04:01:57;100672.72;;;3.85;84.45
17615;BME280;8926;49.720;6.576;2023-01-28T04:04:23;100673.56;;;3.87;84.63
17615;BME280;8926;49.720;6.576;2023-01-28T04:06:53;100677.84;;;3.90;84.69
17615;BME280;8926;49.720;6.576;2023-01-28T04:09:22;100674.41;;;3.89;84.40
17615;BME280;8926;49.720;6.576;2023-01-28T04:11:48;100676.06;;;3.92;84.40
17615;BME280;8926;49.720;6.576;2023-01-28T04:14:14;100684.75;;;3.89;83.63
17615;BME280;8926;49.720;6.576;2023-01-28T04:16:40;100674.44;;;3.88;83.87
17615;BME280;8926;49.720;6.576;2023-01-28T04:19:07;100678.78;;;3.84;83.49
17615;BME280;8926;49.720;6.576;2023-01-28T04:21:32;100679.63;;;3.86;83.78
17615;BME280;8926;49.720;6.576;2023-01-28T04:23:57;100678.75;;;3.86;83.80
17615;BME280;8926;49.720;6.576;2023-01-28T04:26:23;100672.72;;;3.85;82.89
17615;BME280;8926;49.720;6.576;2023-01-28T04:28:48;100676.22;;;3.81;83.29
17615;BME280;8926;49.720;6.576;2023-01-28T04:31:13;100675.34;;;3.84;82.85
17615;BME280;8926;49.720;6.576;2023-01-28T04:33:38;100681.34;;;3.86;83.24
17615;BME280;8926;49.720;6.576;2023-01-28T04:36:04;100683.13;;;3.82;83.45
17615;BME280;8926;49.720;6.576;2023-01-28T04:38:29;100687.44;;;3.80;82.52
17615;BME280;8926;49.720;6.576;2023-01-28T04:40:54;100684.88;;;3.80;82.99
17615;BME280;8926;49.720;6.576;2023-01-28T04:43:20;100691.75;;;3.81;82.38
17615;BME280;8926;49.720;6.576;2023-01-28T04:45:46;100688.28;;;3.82;82.51
17615;BME280;8926;49.720;6.576;2023-01-28T04:48:12;100692.59;;;3.82;82.83
17615;BME280;8926;49.720;6.576;2023-01-28T04:50:37;100696.00;;;3.84;82.70
17615;BME280;8926;49.720;6.576;2023-01-28T04:53:03;100702.00;;;3.87;82.76
17615;BME280;8926;49.720;6.576;2023-01-28T04:55:28;100702.91;;;3.85;81.98
17615;BME280;8926;49.720;6.576;2023-01-28T04:57:53;100705.50;;;3.83;82.24
17615;BME280;8926;49.720;6.576;2023-01-28T05:00:18;100705.50;;;3.83;81.80
17615;BME280;8926;49.720;6.576;2023-01-28T05:02:44;100707.16;;;3.87;82.35
17615;BME280;8926;49.720;6.576;2023-01-28T05:05:09;100704.59;;;3.87;81.77
17615;BME280;8926;49.720;6.576;2023-01-28T05:07:35;100707.09;;;3.90;82.92
17615;BME280;8926;49.720;6.576;2023-01-28T05:10:00;100699.41;;;3.87;81.86
17615;BME280;8926;49.720;6.576;2023-01-28T05:12:26;100708.88;;;3.88;81.68
17615;BME280;8926;49.720;6.576;2023-01-28T05:14:51;100707.16;;;3.87;82.09
17615;BME280;8926;49.720;6.576;2023-01-28T05:17:16;100713.25;;;3.83;81.83
17615;BME280;8926;49.720;6.576;2023-01-28T05:19:42;100714.16;;;3.79;81.92
17615;BME280;8926;49.720;6.576;2023-01-28T05:22:07;100713.28;;;3.82;82.26
17615;BME280;8926;49.720;6.576;2023-01-28T05:24:33;100706.38;;;3.82;81.33
17615;BME280;8926;49.720;6.576;2023-01-28T05:26:58;100714.13;;;3.82;81.85
17615;BME280;8926;49.720;6.576;2023-01-28T05:29:23;100719.38;;;3.76;80.50
17615;BME280;8926;49.720;6.576;2023-01-28T05:31:49;100721.13;;;3.74;80.55
17615;BME280;8926;49.720;6.576;2023-01-28T05:34:14;100721.09;;;3.77;80.36
17615;BME280;8926;49.720;6.576;2023-01-28T05:36:40;100723.66;;;3.77;81.11
17615;BME280;8926;49.720;6.576;2023-01-28T05:39:05;100728.78;;;3.80;80.02
17615;BME280;8926;49.720;6.576;2023-01-28T05:41:32;100722.75;;;3.81;81.00
17615;BME280;8926;49.720;6.576;2023-01-28T05:43:57;100723.66;;;3.79;79.84
17615;BME280;8926;49.720;6.576;2023-01-28T05:46:22;100722.72;;;3.83;81.17
17615;BME280;8926;49.720;6.576;2023-01-28T05:48:49;100726.22;;;3.80;80.38
17615;BME280;8926;49.720;6.576;2023-01-28T05:51:15;100734.84;;;3.79;80.78
17615;BME280;8926;49.720;6.576;2023-01-28T05:53:40;100727.91;;;3.81;80.08
17615;BME280;8926;49.720;6.576;2023-01-28T05:56:06;100731.38;;;3.80;80.32
17615;BME280;8926;49.720;6.576;2023-01-28T05:58:31;100734.03;;;3.75;79.79
17615;BME280;8926;49.720;6.576;2023-01-28T06:00:57;100738.34;;;3.75;80.79
17615;BME280;8926;49.720;6.576;2023-01-28T06:03:22;100738.28;;;3.78;80.16
17615;BME280;8926;49.720;6.576;2023-01-28T06:05:48;100739.16;;;3.79;80.74
17615;BME280;8926;49.720;6.576;2023-01-28T06:08:13;100744.34;;;3.77;79.75
17615;BME280;8926;49.720;6.576;2023-01-28T06:10:38;100733.09;;;3.81;80.78
17615;BME280;8926;49.720;6.576;2023-01-28T06:13:04;100743.44;;;3.81;80.98
17615;BME280;8926;49.720;6.576;2023-01-28T06:15:29;100748.56;;;3.84;80.48
17615;BME280;8926;49.720;6.576;2023-01-28T06:17:55;100743.44;;;3.81;80.22
17615;BME280;8926;49.720;6.576;2023-01-28T06:20:20;100745.16;;;3.81;80.76
17615;BME280;8926;49.720;6.576;2023-01-28T06:22:45;100752.06;;;3.80;79.96
17615;BME280;8926;49.720;6.576;2023-01-28T06:25:11;100739.97;;;3.82;80.66
17615;BME280;8926;49.720;6.576;2023-01-28T06:27:36;100755.44;;;3.85;80.86
17615;BME280;8926;49.720;6.576;2023-01-28T06:30:02;100748.56;;;3.84;80.23
17615;BME280;8926;49.720;6.576;2023-01-28T06:32:27;100758.84;;;3.87;80.74
17615;BME280;8926;49.720;6.576;2023-01-28T06:34:53;100759.66;;;3.91;80.51
17615;BME280;8926;49.720;6.576;2023-01-28T06:37:18;100760.50;;;3.91;80.62
17615;BME280;8926;49.720;6.576;2023-01-28T06:39:44;100767.44;;;3.89;80.08
17615;BME280;8926;49.720;6.576;2023-01-28T06:42:10;100768.34;;;3.87;80.63
17615;BME280;8926;49.720;6.576;2023-01-28T06:44:35;100767.50;;;3.86;80.17
17615;BME280;8926;49.720;6.576;2023-01-28T06:47:03;100776.06;;;3.88;80.91
17615;BME280;8926;49.720;6.576;2023-01-28T06:49:29;100777.78;;;3.89;80.71
17615;BME280;8926;49.720;6.576;2023-01-28T06:51:57;100778.59;;;3.91;80.81
17615;BME280;8926;49.720;6.576;2023-01-28T06:54:22;100782.97;;;3.89;81.24
17615;BME280;8926;49.720;6.576;2023-01-28T06:56:48;100788.13;;;3.89;80.42
17615;BME280;8926;49.720;6.576;2023-01-28T06:59:13;100792.47;;;3.87;80.71
17615;BME280;8926;49.720;6.576;2023-01-28T07:01:38;100786.44;;;3.87;80.66
17615;BME280;8926;49.720;6.576;2023-01-28T07:04:04;100789.03;;;3.85;79.66
17615;BME280;8926;49.720;6.576;2023-01-28T07:06:29;100796.81;;;3.82;79.93
17615;BME280;8926;49.720;6.576;2023-01-28T07:08:54;100802.00;;;3.82;80.15
17615;BME280;8926;49.720;6.576;2023-01-28T07:11:20;100808.88;;;3.83;80.12
17615;BME280;8926;49.720;6.576;2023-01-28T07:13:45;100807.13;;;3.85;80.99
17615;BME280;8926;49.720;6.576;2023-01-28T07:16:11;100803.72;;;3.83;80.23
17615;BME280;8926;49.720;6.576;2023-01-28T07:18:37;100803.72;;;3.83;80.35
17615;BME280;8926;49.720;6.576;2023-01-28T07:21:02;100814.91;;;3.82;79.83
17615;BME280;8926;49.720;6.576;2023-01-28T07:23:27;100809.75;;;3.81;80.31
17615;BME280;8926;49.720;6.576;2023-01-28T07:25:53;100822.66;;;3.82;81.01
17615;BME280;8926;49.720;6.576;2023-01-28T07:28:18;100822.66;;;3.82;80.43
17615;BME280;8926;49.720;6.576;2023-01-28T07:30:51;100824.41;;;3.80;79.99
17615;BME280;8926;49.720;6.576;2023-01-28T07:33:17;100826.16;;;3.78;80.20
17615;BME280;8926;49.720;6.576;2023-01-28T07:35:43;100829.59;;;3.80;80.09
17615;BME280;8926;49.720;6.576;2023-01-28T07:38:08;100826.09;;;3.83;81.30
17615;BME280;8926;49.720;6.576;2023-01-28T07:40:33;100822.63;;;3.85;80.80
17615;BME280;8926;49.720;6.576;2023-01-28T07:42:59;100815.72;;;3.87;80.60
17615;BME280;8926;49.720;6.576;2023-01-28T07:45:25;100822.47;;;3.97;80.76
17615;BME280;8926;49.720;6.576;2023-01-28T07:47:58;100813.81;;;4.01;80.11
17615;BME280;8926;49.720;6.576;2023-01-28T07:50:25;100812.00;;;4.09;79.82
17615;BME280;8926;49.720;6.576;2023-01-28T07:52:50;100811.00;;;4.17;79.13
17615;BME280;8926;49.720;6.576;2023-01-28T07:55:16;100822.25;;;4.16;79.45
17615;BME280;8926;49.720;6.576;2023-01-28T07:58:02;100810.16;;;4.16;79.70
17615;BME280;8926;49.720;6.576;2023-01-28T08:00:30;100817.09;;;4.16;79.19
17615;BME280;8926;49.720;6.576;2023-01-28T08:02:57;100815.25;;;4.21;79.08
17615;BME280;8926;49.720;6.576;2023-01-28T08:05:23;100809.16;;;4.26;78.96
17615;BME280;8926;49.720;6.576;2023-01-28T08:07:51;100807.38;;;4.31;79.02
17615;BME280;8926;49.720;6.576;2023-01-28T08:10:16;100809.94;;;4.33;79.30
17615;BME280;8926;49.720;6.576;2023-01-28T08:12:57;100815.06;;;4.37;78.43
17615;BME280;8926;49.720;6.576;2023-01-28T08:15:23;100815.03;;;4.39;78.91
17615;BME280;8926;49.720;6.576;2023-01-28T08:17:49;100817.63;;;4.39;79.00
17615;BME280;8926;49.720;6.576;2023-01-28T08:20:15;100818.56;;;4.32;78.40
17615;BME280;8926;49.720;6.576;2023-01-28T08:22:40;100821.19;;;4.29;78.30
17615;BME280;8926;49.720;6.576;2023-01-28T08:25:06;100821.25;;;4.24;78.87
17615;BME280;8926;49.720;6.576;2023-01-28T08:27:32;100821.22;;;4.27;78.45
17615;BME280;8926;49.720;6.576;2023-01-28T08:29:57;100818.50;;;4.38;79.24
17615;BME280;8926;49.720;6.576;2023-01-28T08:32:22;100822.78;;;4.39;78.88
17615;BME280;8926;49.720;6.576;2023-01-28T08:34:47;100824.47;;;4.41;78.65
17615;BME280;8926;49.720;6.576;2023-01-28T08:37:13;100823.56;;;4.42;78.59
17615;BME280;8926;49.720;6.576;2023-01-28T08:39:38;100826.88;;;4.54;79.08
17615;BME280;8926;49.720;6.576;2023-01-28T08:42:05;100824.19;;;4.60;79.25
17615;BME280;8926;49.720;6.576;2023-01-28T08:44:30;100835.56;;;4.48;77.99
17615;BME280;8926;49.720;6.576;2023-01-28T08:46:56;100838.28;;;4.40;78.78
17615;BME280;8926;49.720;6.576;2023-01-28T08:49:21;100838.41;;;4.31;77.85
17615;BME280;8926;49.720;6.576;2023-01-28T08:51:46;100837.59;;;4.28;78.40
17615;BME280;8926;49.720;6.576;2023-01-28T08:54:12;100835.00;;;4.28;79.03
17615;BME280;8926;49.720;6.576;2023-01-28T08:56:37;100843.56;;;4.33;78.08
17615;BME280;8926;49.720;6.576;2023-01-28T08:59:03;100850.38;;;4.38;79.25
17615;BME280;8926;49.720;6.576;2023-01-28T09:01:28;100850.41;;;4.37;78.57
17615;BME280;8926;49.720;6.576;2023-01-28T09:03:54;100840.03;;;4.40;78.62
17615;BME280;8926;49.720;6.576;2023-01-28T09:06:19;100846.06;;;4.39;78.16
17615;BME280;8926;49.720;6.576;2023-01-28T09:08:45;100851.13;;;4.45;77.87
17615;BME280;8926;49.720;6.576;2023-01-28T09:11:10;100844.34;;;4.38;78.22
17615;BME280;8926;49.720;6.576;2023-01-28T09:13:35;100852.97;;;4.38;78.00
17615;BME280;8926;49.720;6.576;2023-01-28T09:16:04;100847.84;;;4.35;78.13
17615;BME280;8926;49.720;6.576;2023-01-28T09:18:29;100853.03;;;4.34;77.98
17615;BME280;8926;49.720;6.576;2023-01-28T09:20:54;100852.19;;;4.32;78.99
17615;BME280;8926;49.720;6.576;2023-01-28T09:23:20;100859.91;;;4.35;78.91
17615;BME280;8926;49.720;6.576;2023-01-28T09:25:45;100859.06;;;4.34;77.46
17615;BME280;8926;49.720;6.576;2023-01-28T09:28:10;100865.06;;;4.38;78.79
17615;BME280;8926;49.720;6.576;2023-01-28T09:30:35;100866.84;;;4.33;78.15
17615;BME280;8926;49.720;6.576;2023-01-28T09:33:02;100879.78;;;4.31;78.49
17615;BME280;8926;49.720;6.576;2023-01-28T09:35:27;100875.50;;;4.29;78.23
17615;BME280;8926;49.720;6.576;2023-01-28T09:37:56;100880.69;;;4.29;78.12
17615;BME280;8926;49.720;6.576;2023-01-28T09:40:48;100884.16;;;4.28;78.47
17615;BME280;8926;49.720;6.576;2023-01-28T09:45:55;100886.69;;;4.32;78.83
17615;BME280;8926;49.720;6.576;2023-01-28T09:48:27;100893.53;;;4.35;78.91
17615;BME280;8926;49.720;6.576;2023-01-28T09:50:57;100901.38;;;4.29;78.64
17615;BME280;8926;49.720;6.576;2023-01-28T09:53:27;100901.47;;;4.21;78.39
17615;BME280;8926;49.720;6.576;2023-01-28T09:55:56;100899.72;;;4.22;78.27
17615;BME280;8926;49.720;6.576;2023-01-28T09:58:23;100905.78;;;4.21;78.29
17615;BME280;8926;49.720;6.576;2023-01-28T10:01:19;100911.91;;;4.14;78.11
17615;BME280;8926;49.720;6.576;2023-01-28T10:04:04;100906.75;;;4.14;79.37
17615;BME280;8926;49.720;6.576;2023-01-28T10:06:53;100909.25;;;4.18;79.57
17615;BME280;8926;49.720;6.576;2023-01-28T10:17:49;100910.91;;;4.24;78.66
17615;BME280;8926;49.720;6.576;2023-01-28T10:20:27;100917.84;;;4.22;78.44
17615;BME280;8926;49.720;6.576;2023-01-28T10:23:10;100915.22;;;4.25;79.24
17615;BME280;8926;49.720;6.576;2023-01-28T10:25:40;100910.94;;;4.22;78.45
17615;BME280;8926;49.720;6.576;2023-01-28T10:28:17;100918.75;;;4.18;78.74
17615;BME280;8926;49.720;6.576;2023-01-28T10:30:44;100920.53;;;4.16;79.26
17615;BME280;8926;49.720;6.576;2023-01-28T10:33:24;100924.78;;;4.18;79.23
17615;BME280;8926;49.720;6.576;2023-01-28T10:35:54;100923.88;;;4.21;78.97
17615;BME280;8926;49.720;6.576;2023-01-28T10:38:22;100911.72;;;4.29;79.25
17615;BME280;8926;49.720;6.576;2023-01-28T10:40:49;100916.84;;;4.32;78.89
17615;BME280;8926;49.720;6.576;2023-01-28T10:43:18;100918.59;;;4.30;77.24
17615;BME280;8926;49.720;6.576;2023-01-28T10:45:56;100911.69;;;4.32;77.47
17615;BME280;8926;49.720;6.576;2023-01-28T10:48:25;100906.59;;;4.26;78.34
17615;BME280;8926;49.720;6.576;2023-01-28T10:50:58;100913.50;;;4.24;77.24
17615;BME280;8926;49.720;6.576;2023-01-28T10:53:45;100915.22;;;4.25;77.63
17615;BME280;8926;49.720;6.576;2023-01-28T10:56:15;100910.06;;;4.22;76.77
17615;BME280;8926;49.720;6.576;2023-01-28T10:59:01;100918.63;;;4.27;76.79
17615;BME280;8926;49.720;6.576;2023-01-28T11:01:48;100917.72;;;4.31;76.04
17615;BME280;8926;49.720;6.576;2023-01-28T11:04:21;100922.03;;;4.32;76.30
17615;BME280;8926;49.720;6.576;2023-01-28T11:09:20;100922.00;;;4.35;76.17
17615;BME280;8926;49.720;6.576;2023-01-28T11:11:46;100916.72;;;4.42;76.09
17615;BME280;8926;49.720;6.576;2023-01-28T11:14:23;100913.41;;;4.33;72.91
17615;BME280;8926;49.720;6.576;2023-01-28T11:16:50;100921.97;;;4.38;74.30
17615;BME280;8926;49.720;6.576;2023-01-28T11:19:18;100911.59;;;4.41;73.74
17615;BME280;8926;49.720;6.576;2023-01-28T11:21:51;100935.75;;;4.40;74.06
17615;BME280;8926;49.720;6.576;2023-01-28T11:24:22;100923.69;;;4.39;73.47
17615;BME280;8926;49.720;6.576;2023-01-28T11:26:52;100926.19;;;4.43;74.20
17615;BME280;8926;49.720;6.576;2023-01-28T11:29:32;100922.69;;;4.46;72.86
17615;BME280;8926;49.720;6.576;2023-01-28T11:31:59;100920.03;;;4.52;73.15
17615;BME280;8926;49.720;6.576;2023-01-28T11:34:29;100913.03;;;4.60;72.85
17615;BME280;8926;49.720;6.576;2023-01-28T11:37:23;100913.13;;;4.54;72.97
17615;BME280;8926;49.720;6.576;2023-01-28T11:39:48;100914.94;;;4.46;71.87
17615;BME280;8926;49.720;6.576;2023-01-28T11:42:19;100911.50;;;4.44;72.13
17615;BME280;8926;49.720;6.576;2023-01-28T11:44:45;100908.94;;;4.42;73.16
17615;BME280;8926;49.720;6.576;2023-01-28T11:57:54;100903.91;;;4.35;72.25
17615;BME280;8926;49.720;6.576;2023-01-28T12:20:22;100889.25;;;4.34;68.99
17615;BME280;8926;49.720;6.576;2023-01-28T12:31:33;100883.28;;;4.29;69.02
17615;BME280;8926;49.720;6.576;2023-01-28T12:42:12;100880.72;;;4.26;70.33
17615;BME280;8926;49.720;6.576;2023-01-28T12:44:47;100869.47;;;4.28;70.77
17615;BME280;8926;49.720;6.576;2023-01-28T12:47:32;100875.59;;;4.23;69.64
17615;BME280;8926;49.720;6.576;2023-01-28T12:50:04;100870.34;;;4.29;70.66
17615;BME280;8926;49.720;6.576;2023-01-28T12:52:41;100863.38;;;4.34;70.86
17615;BME280;8926;49.720;6.576;2023-01-28T12:55:19;100858.16;;;4.37;70.23
17615;BME280;8926;49.720;6.576;2023-01-28T12:57:44;100859.88;;;4.38;69.86
17615;BME280;8926;49.720;6.576;2023-01-28T13:00:35;100866.84;;;4.33;70.22
17615;BME280;8926;49.720;6.576;2023-01-28T13:03:34;100860.78;;;4.35;70.15
17615;BME280;8926;49.720;6.576;2023-01-28T13:06:08;100871.97;;;4.36;69.69
17615;BME280;8926;49.720;6.576;2023-01-28T13:08:36;100874.53;;;4.37;69.87
17615;BME280;8926;49.720;6.576;2023-01-28T13:11:03;100880.72;;;4.26;69.83
17615;BME280;8926;49.720;6.576;2023-01-28T13:13:32;100882.44;;;4.27;70.82
17615;BME280;8926;49.720;6.576;2023-01-28T13:15:58;100880.69;;;4.29;70.18
17615;BME280;8926;49.720;6.576;2023-01-28T13:18:43;100884.97;;;4.31;69.12
17615;BME280;8926;49.720;6.576;2023-01-28T13:31:52;100889.28;;;4.31;67.20
17615;BME280;8926;49.720;6.576;2023-01-28T13:34:36;100884.03;;;4.37;67.77
17615;BME280;8926;49.720;6.576;2023-01-28T13:37:03;100883.94;;;4.43;67.08
17615;BME280;8926;49.720;6.576;2023-01-28T13:39:29;100895.13;;;4.45;67.37
17615;BME280;8926;49.720;6.576;2023-01-28T13:42:09;100888.25;;;4.42;66.55
17615;BME280;8926;49.720;6.576;2023-01-28T13:44:36;100889.06;;;4.46;67.72
17615;BME280;8926;49.720;6.576;2023-01-28T13:49:42;100899.53;;;4.40;66.43
17615;BME280;8926;49.720;6.576;2023-01-28T13:54:45;100904.72;;;4.38;67.61
17615;BME280;8926;49.720;6.576;2023-01-28T14:03:01;100921.94;;;4.41;67.00
17615;BME280;8926;49.720;6.576;2023-01-28T14:05:48;100920.22;;;4.40;66.21
17615;BME280;8926;49.720;6.576;2023-01-28T14:14:23;100929.88;;;4.24;66.71
17615;BME280;8926;49.720;6.576;2023-01-28T14:19:39;100920.38;;;4.25;66.54
17615;BME280;8926;49.720;6.576;2023-01-28T14:22:25;100922.97;;;4.25;66.31
17615;BME280;8926;49.720;6.576;2023-01-28T14:24:50;100928.13;;;4.28;67.25
17615;BME280;8926;49.720;6.576;2023-01-28T14:27:21;100918.63;;;4.27;66.80
17615;BME280;8926;49.720;6.576;2023-01-28T14:30:09;100923.78;;;4.30;67.29
17615;BME280;8926;49.720;6.576;2023-01-28T14:32:47;100918.63;;;4.27;66.64
17615;BME280;8926;49.720;6.576;2023-01-28T14:35:27;100910.00;;;4.28;65.67
17615;BME280;8926;49.720;6.576;2023-01-28T14:37:54;100916.00;;;4.31;66.50
17615;BME280;8926;49.720;6.576;2023-01-28T14:40:20;100916.91;;;4.29;66.33
17615;BME280;8926;49.720;6.576;2023-01-28T14:42:49;100922.09;;;4.26;65.88
17615;BME280;8926;49.720;6.576;2023-01-28T14:45:32;100925.56;;;4.25;66.83
17615;BME280;8926;49.720;6.576;2023-01-28T14:54:06;100925.69;;;4.16;65.86
17615;BME280;8926;49.720;6.576;2023-01-28T14:59:25;100923.25;;;4.02;64.78
17615;BME280;8926;49.720;6.576;2023-01-28T15:01:57;100919.84;;;3.97;65.48
17615;BME280;8926;49.720;6.576;2023-01-28T15:04:28;100924.19;;;3.93;64.93
17615;BME280;8926;49.720;6.576;2023-01-28T15:06:55;100925.03;;;3.95;63.92
17615;BME280;8926;49.720;6.576;2023-01-28T15:09:21;100922.41;;;3.98;65.25
17615;BME280;8926;49.720;6.576;2023-01-28T15:11:48;100905.16;;;4.00;64.51
17615;BME280;8926;49.720;6.576;2023-01-28T15:14:26;100905.94;;;4.07;65.64
17615;BME280;8926;49.720;6.576;2023-01-28T15:16:53;100905.09;;;4.06;65.91
17615;BME280;8926;49.720;6.576;2023-01-28T15:19:33;100903.38;;;4.05;67.29